SWR8WP LSZH-EDDF
Flight info
| Callsign | SWR8WP |
|---|---|
| Flight time | 0h 45m |
| Altitude | 20000 |
| Route | DEGES Z1 SUDEN T164 KOVAN T163 SPESA SPESA5B |
| Aircraft | A21N/M-SDE2E3FGHIRWXY/LB1 |
Departure
| Time | 2026-05-06 10:33 |
|---|---|
| Airport | Zürich Airport (LSZH) |
Arrival
| Time | 2026-05-06 11:18 |
|---|---|
| Airport | Frankfurt Main Airport (EDDF) |
| Time | Latitude | Longitude | Altitude | Speed | Heading |
|---|---|---|---|---|---|
| 2026-05-06 10:31 | 47.45660 | 8.57007 | 1430 ft | 0 kts | 282° |
| 2026-05-06 10:32 | 47.45670 | 8.56878 | 1428 ft | 43 kts | 274° |
| 2026-05-06 10:32 | 47.45729 | 8.56056 | 1420 ft | 113 kts | 276° |
| 2026-05-06 10:33 | 47.45826 | 8.54676 | 1431 ft | 151 kts | 278° |
| 2026-05-06 10:33 | 47.45929 | 8.53142 | 1905 ft | 152 kts | 278° |
| 2026-05-06 10:33 | 47.46040 | 8.51584 | 2500 ft | 151 kts | 277° |
| 2026-05-06 10:33 | 47.46150 | 8.50010 | 2899 ft | 162 kts | 277° |
| 2026-05-06 10:34 | 47.46267 | 8.48286 | 3344 ft | 176 kts | 274° |
| 2026-05-06 10:34 | 47.46015 | 8.46442 | 3768 ft | 194 kts | 243° |
| 2026-05-06 10:34 | 47.45025 | 8.44985 | 4208 ft | 215 kts | 211° |
| 2026-05-06 10:34 | 47.43679 | 8.43870 | 4735 ft | 226 kts | 224° |
| 2026-05-06 10:35 | 47.42892 | 8.41904 | 5350 ft | 228 kts | 258° |
| 2026-05-06 10:35 | 47.42627 | 8.39569 | 6026 ft | 232 kts | 260° |
| 2026-05-06 10:35 | 47.42231 | 8.37258 | 6664 ft | 233 kts | 240° |
| 2026-05-06 10:35 | 47.41101 | 8.35579 | 7223 ft | 235 kts | 206° |
| 2026-05-06 10:36 | 47.39522 | 8.35095 | 7826 ft | 237 kts | 175° |
| 2026-05-06 10:36 | 47.37982 | 8.35868 | 8443 ft | 241 kts | 147° |
| 2026-05-06 10:36 | 47.36884 | 8.37723 | 9036 ft | 245 kts | 116° |
| 2026-05-06 10:36 | 47.36579 | 8.40226 | 9630 ft | 250 kts | 85° |
| 2026-05-06 10:37 | 47.37182 | 8.42606 | 10076 ft | 257 kts | 54° |
| 2026-05-06 10:37 | 47.38578 | 8.44262 | 10497 ft | 263 kts | 27° |
| 2026-05-06 10:37 | 47.40274 | 8.45319 | 10949 ft | 266 kts | 25° |
| 2026-05-06 10:37 | 47.41854 | 8.46733 | 11357 ft | 270 kts | 47° |
| 2026-05-06 10:38 | 47.43048 | 8.48936 | 11617 ft | 280 kts | 57° |
| 2026-05-06 10:38 | 47.44189 | 8.51366 | 11803 ft | 294 kts | 57° |
| 2026-05-06 10:38 | 47.45271 | 8.53990 | 11953 ft | 303 kts | 68° |
| 2026-05-06 10:38 | 47.45838 | 8.57000 | 12082 ft | 307 kts | 86° |
| 2026-05-06 10:39 | 47.45971 | 8.60022 | 12207 ft | 314 kts | 90° |
| 2026-05-06 10:39 | 47.46054 | 8.63323 | 12327 ft | 323 kts | 90° |
| 2026-05-06 10:39 | 47.46147 | 8.66746 | 12540 ft | 344 kts | 90° |
| 2026-05-06 10:39 | 47.46261 | 8.70301 | 12789 ft | 363 kts | 90° |
| 2026-05-06 10:40 | 47.46392 | 8.74128 | 13056 ft | 380 kts | 89° |
| 2026-05-06 10:40 | 47.46532 | 8.78102 | 13301 ft | 396 kts | 90° |
| 2026-05-06 10:40 | 47.46560 | 8.82186 | 13540 ft | 406 kts | 98° |
| 2026-05-06 10:40 | 47.46124 | 8.86344 | 13827 ft | 411 kts | 105° |
| 2026-05-06 10:41 | 47.45512 | 8.90483 | 14225 ft | 415 kts | 106° |
| 2026-05-06 10:41 | 47.44895 | 8.94653 | 14682 ft | 418 kts | 106° |
| 2026-05-06 10:41 | 47.44289 | 8.98856 | 15218 ft | 421 kts | 105° |
| 2026-05-06 10:41 | 47.43695 | 9.03063 | 15760 ft | 425 kts | 105° |
| 2026-05-06 10:42 | 47.43086 | 9.07349 | 16284 ft | 428 kts | 105° |
| 2026-05-06 10:42 | 47.42478 | 9.11679 | 16768 ft | 433 kts | 104° |
| 2026-05-06 10:42 | 47.42168 | 9.16147 | 17265 ft | 442 kts | 94° |
| 2026-05-06 10:42 | 47.42421 | 9.20708 | 17708 ft | 451 kts | 84° |
| 2026-05-06 10:43 | 47.43276 | 9.25221 | 18173 ft | 460 kts | 72° |
| 2026-05-06 10:43 | 47.44706 | 9.29491 | 18606 ft | 466 kts | 63° |
| 2026-05-06 10:43 | 47.46375 | 9.33597 | 18998 ft | 469 kts | 59° |
| 2026-05-06 10:44 | 47.51017 | 9.40484 | 19726 ft | 481 kts | 35° |
| 2026-05-06 10:44 | 47.53995 | 9.42820 | 19847 ft | 487 kts | 22° |
| 2026-05-06 10:44 | 47.57217 | 9.44436 | 19841 ft | 488 kts | 15° |
| 2026-05-06 10:44 | 47.60554 | 9.45289 | 19822 ft | 487 kts | 4° |
| 2026-05-06 10:45 | 47.63925 | 9.45525 | 19810 ft | 487 kts | 0° |
| 2026-05-06 10:45 | 47.67224 | 9.45650 | 19798 ft | 487 kts | 0° |
| 2026-05-06 10:45 | 47.70615 | 9.45790 | 19794 ft | 487 kts | 0° |
| 2026-05-06 10:45 | 47.74007 | 9.45954 | 19799 ft | 487 kts | 1° |
| 2026-05-06 10:46 | 47.77357 | 9.46128 | 19792 ft | 487 kts | 1° |
| 2026-05-06 10:46 | 47.80751 | 9.46263 | 19788 ft | 487 kts | 359° |
| 2026-05-06 10:46 | 47.84126 | 9.46268 | 19794 ft | 486 kts | 359° |
| 2026-05-06 10:46 | 47.87492 | 9.46260 | 19791 ft | 482 kts | 358° |
| 2026-05-06 10:47 | 47.90849 | 9.46252 | 19791 ft | 481 kts | 358° |
| 2026-05-06 10:47 | 47.94200 | 9.46243 | 19792 ft | 481 kts | 358° |
| 2026-05-06 10:47 | 47.97547 | 9.46237 | 19791 ft | 481 kts | 358° |
| 2026-05-06 10:47 | 48.00903 | 9.46226 | 19794 ft | 482 kts | 358° |
| 2026-05-06 10:48 | 48.04254 | 9.46216 | 19790 ft | 482 kts | 358° |
| 2026-05-06 10:48 | 48.07596 | 9.46209 | 19786 ft | 478 kts | 359° |
| 2026-05-06 10:48 | 48.10923 | 9.46209 | 19784 ft | 478 kts | 359° |
| 2026-05-06 10:48 | 48.14244 | 9.46209 | 19790 ft | 478 kts | 359° |
| 2026-05-06 10:49 | 48.17579 | 9.46205 | 19787 ft | 478 kts | 359° |
| 2026-05-06 10:49 | 48.20862 | 9.46200 | 19790 ft | 478 kts | 359° |
| 2026-05-06 10:49 | 48.24186 | 9.46196 | 19788 ft | 478 kts | 359° |
| 2026-05-06 10:49 | 48.27509 | 9.46200 | 19800 ft | 477 kts | 359° |
| 2026-05-06 10:50 | 48.30820 | 9.46202 | 19789 ft | 476 kts | 359° |
| 2026-05-06 10:50 | 48.34131 | 9.46200 | 19783 ft | 476 kts | 359° |
| 2026-05-06 10:50 | 48.37457 | 9.46199 | 19783 ft | 475 kts | 359° |
| 2026-05-06 10:50 | 48.40759 | 9.46201 | 19784 ft | 476 kts | 359° |
| 2026-05-06 10:51 | 48.44072 | 9.46197 | 19783 ft | 476 kts | 359° |
| 2026-05-06 10:51 | 48.47369 | 9.45735 | 19778 ft | 474 kts | 348° |
| 2026-05-06 10:51 | 48.50480 | 9.44353 | 19787 ft | 471 kts | 336° |
| 2026-05-06 10:51 | 48.53363 | 9.42019 | 19780 ft | 468 kts | 323° |
| 2026-05-06 10:52 | 48.55847 | 9.38884 | 19779 ft | 464 kts | 311° |
| 2026-05-06 10:52 | 48.57858 | 9.35119 | 19788 ft | 460 kts | 301° |
| 2026-05-06 10:52 | 48.59655 | 9.31103 | 19789 ft | 460 kts | 302° |
| 2026-05-06 10:52 | 48.61760 | 9.27430 | 19775 ft | 465 kts | 314° |
| 2026-05-06 10:53 | 48.64333 | 9.24436 | 19796 ft | 469 kts | 326° |
| 2026-05-06 10:53 | 48.67262 | 9.22214 | 19800 ft | 471 kts | 334° |
| 2026-05-06 10:53 | 48.70244 | 9.20267 | 19791 ft | 471 kts | 335° |
| 2026-05-06 10:53 | 48.73251 | 9.18321 | 19780 ft | 467 kts | 335° |
| 2026-05-06 10:54 | 48.76236 | 9.16366 | 19788 ft | 465 kts | 335° |
| 2026-05-06 10:54 | 48.79204 | 9.14403 | 19785 ft | 465 kts | 335° |
| 2026-05-06 10:54 | 48.82172 | 9.12431 | 19786 ft | 465 kts | 335° |
| 2026-05-06 10:54 | 48.85155 | 9.10512 | 19784 ft | 466 kts | 338° |
| 2026-05-06 10:55 | 48.88281 | 9.09224 | 19780 ft | 467 kts | 349° |
| 2026-05-06 10:55 | 48.91525 | 9.08882 | 19782 ft | 468 kts | 1° |
| 2026-05-06 10:55 | 48.94774 | 9.09278 | 19794 ft | 468 kts | 5° |
| 2026-05-06 10:55 | 48.98027 | 9.09780 | 19787 ft | 470 kts | 5° |
| 2026-05-06 10:56 | 49.01292 | 9.10270 | 19780 ft | 470 kts | 5° |
| 2026-05-06 10:56 | 49.04552 | 9.10739 | 19784 ft | 470 kts | 5° |
| 2026-05-06 10:56 | 49.07814 | 9.11210 | 19787 ft | 470 kts | 5° |
| 2026-05-06 10:56 | 49.11029 | 9.11671 | 19783 ft | 470 kts | 5° |
| 2026-05-06 10:57 | 49.14302 | 9.12137 | 19783 ft | 470 kts | 5° |
| 2026-05-06 10:57 | 49.17558 | 9.12607 | 19780 ft | 470 kts | 5° |
| 2026-05-06 10:57 | 49.20819 | 9.13073 | 19782 ft | 470 kts | 4° |
| 2026-05-06 10:57 | 49.24078 | 9.13529 | 19780 ft | 470 kts | 4° |
| 2026-05-06 10:58 | 49.27333 | 9.13996 | 19776 ft | 470 kts | 5° |
| 2026-05-06 10:58 | 49.30586 | 9.14464 | 19777 ft | 470 kts | 4° |
| 2026-05-06 10:58 | 49.33821 | 9.14928 | 19777 ft | 470 kts | 4° |
| 2026-05-06 10:58 | 49.37097 | 9.15396 | 19606 ft | 465 kts | 4° |
| 2026-05-06 10:59 | 49.40277 | 9.15854 | 19017 ft | 452 kts | 4° |
| 2026-05-06 10:59 | 49.43364 | 9.16294 | 18351 ft | 441 kts | 4° |
| 2026-05-06 10:59 | 49.46401 | 9.16728 | 17565 ft | 434 kts | 4° |
| 2026-05-06 10:59 | 49.49318 | 9.17147 | 16835 ft | 429 kts | 4° |
| 2026-05-06 11:00 | 49.52350 | 9.17580 | 16188 ft | 425 kts | 4° |
| 2026-05-06 11:00 | 49.55293 | 9.17999 | 15612 ft | 421 kts | 4° |
| 2026-05-06 11:00 | 49.58152 | 9.18408 | 15075 ft | 417 kts | 4° |
| 2026-05-06 11:00 | 49.61043 | 9.18830 | 14576 ft | 416 kts | 5° |
| 2026-05-06 11:01 | 49.63881 | 9.19632 | 14129 ft | 413 kts | 15° |
| 2026-05-06 11:01 | 49.66524 | 9.21381 | 13701 ft | 413 kts | 30° |
| 2026-05-06 11:01 | 49.68808 | 9.24039 | 13225 ft | 410 kts | 44° |
| 2026-05-06 11:01 | 49.70755 | 9.27054 | 12685 ft | 406 kts | 44° |
| 2026-05-06 11:02 | 49.73000 | 9.29699 | 12137 ft | 403 kts | 30° |
| 2026-05-06 11:02 | 49.75519 | 9.31382 | 11752 ft | 397 kts | 15° |
| 2026-05-06 11:02 | 49.78208 | 9.32100 | 11416 ft | 378 kts | 1° |
| 2026-05-06 11:02 | 49.80774 | 9.32071 | 11166 ft | 361 kts | 0° |
| 2026-05-06 11:03 | 49.83220 | 9.31950 | 10951 ft | 342 kts | 347° |
| 2026-05-06 11:03 | 49.85357 | 9.30745 | 10740 ft | 322 kts | 327° |
| 2026-05-06 11:03 | 49.86990 | 9.28598 | 10563 ft | 298 kts | 302° |
| 2026-05-06 11:03 | 49.87877 | 9.25834 | 10423 ft | 283 kts | 286° |
| 2026-05-06 11:04 | 49.88494 | 9.22898 | 10293 ft | 283 kts | 284° |
| 2026-05-06 11:04 | 49.89057 | 9.20015 | 10180 ft | 282 kts | 283° |
| 2026-05-06 11:04 | 49.89616 | 9.17100 | 10052 ft | 281 kts | 283° |
| 2026-05-06 11:04 | 49.90172 | 9.14193 | 9936 ft | 281 kts | 283° |
| 2026-05-06 11:05 | 49.90725 | 9.11289 | 9817 ft | 280 kts | 283° |
| 2026-05-06 11:05 | 49.91277 | 9.08384 | 9699 ft | 280 kts | 283° |
| 2026-05-06 11:05 | 49.91930 | 9.05551 | 9562 ft | 282 kts | 295° |
| 2026-05-06 11:05 | 49.93184 | 9.03187 | 9422 ft | 289 kts | 317° |
| 2026-05-06 11:06 | 49.94976 | 9.01725 | 9285 ft | 295 kts | 341° |
| 2026-05-06 11:06 | 49.96984 | 9.01461 | 9154 ft | 301 kts | 5° |
| 2026-05-06 11:06 | 49.98968 | 9.02478 | 9022 ft | 303 kts | 30° |
| 2026-05-06 11:06 | 50.00599 | 9.04544 | 8907 ft | 303 kts | 44° |
| 2026-05-06 11:07 | 50.02050 | 9.06789 | 8789 ft | 303 kts | 45° |
| 2026-05-06 11:07 | 50.03591 | 9.09147 | 8663 ft | 302 kts | 44° |
| 2026-05-06 11:07 | 50.05102 | 9.11422 | 8533 ft | 301 kts | 43° |
| 2026-05-06 11:07 | 50.06623 | 9.13671 | 8410 ft | 301 kts | 43° |
| 2026-05-06 11:08 | 50.07628 | 9.15152 | 8325 ft | 300 kts | 43° |
| 2026-05-06 11:08 | 50.09145 | 9.17393 | 8199 ft | 301 kts | 43° |
| 2026-05-06 11:08 | 50.10664 | 9.19622 | 8076 ft | 299 kts | 41° |
| 2026-05-06 11:08 | 50.12359 | 9.21475 | 7949 ft | 298 kts | 30° |
| 2026-05-06 11:09 | 50.14228 | 9.22840 | 7802 ft | 295 kts | 12° |
| 2026-05-06 11:09 | 50.16232 | 9.22885 | 7668 ft | 287 kts | 342° |
| 2026-05-06 11:09 | 50.17971 | 9.21509 | 7543 ft | 279 kts | 315° |
| 2026-05-06 11:09 | 50.19082 | 9.19114 | 7427 ft | 271 kts | 289° |
| 2026-05-06 11:10 | 50.19390 | 9.16276 | 7300 ft | 264 kts | 264° |
| 2026-05-06 11:10 | 50.18955 | 9.13504 | 7183 ft | 263 kts | 248° |
| 2026-05-06 11:10 | 50.18283 | 9.10860 | 6954 ft | 261 kts | 247° |
| 2026-05-06 11:10 | 50.17612 | 9.08222 | 6624 ft | 260 kts | 248° |
| 2026-05-06 11:11 | 50.16962 | 9.05589 | 6311 ft | 258 kts | 249° |
| 2026-05-06 11:11 | 50.16362 | 9.03104 | 6111 ft | 248 kts | 249° |
| 2026-05-06 11:11 | 50.15784 | 9.00668 | 5964 ft | 237 kts | 249° |
| 2026-05-06 11:11 | 50.15248 | 8.98290 | 5784 ft | 227 kts | 251° |
| 2026-05-06 11:12 | 50.14738 | 8.96005 | 5516 ft | 221 kts | 249° |
| 2026-05-06 11:12 | 50.14203 | 8.93736 | 5173 ft | 219 kts | 249° |
| 2026-05-06 11:12 | 50.13679 | 8.91533 | 4984 ft | 214 kts | 249° |
| 2026-05-06 11:12 | 50.13179 | 8.89429 | 4941 ft | 202 kts | 248° |
| 2026-05-06 11:13 | 50.12704 | 8.87432 | 4946 ft | 195 kts | 249° |
| 2026-05-06 11:13 | 50.12245 | 8.85504 | 4869 ft | 191 kts | 248° |
| 2026-05-06 11:13 | 50.11782 | 8.83561 | 4668 ft | 191 kts | 249° |
| 2026-05-06 11:13 | 50.11315 | 8.81600 | 4414 ft | 194 kts | 248° |
| 2026-05-06 11:14 | 50.10853 | 8.79662 | 4137 ft | 189 kts | 249° |
| 2026-05-06 11:14 | 50.10390 | 8.77715 | 3864 ft | 193 kts | 248° |
| 2026-05-06 11:14 | 50.09930 | 8.75784 | 3589 ft | 189 kts | 248° |
| 2026-05-06 11:14 | 50.09471 | 8.73856 | 3316 ft | 188 kts | 247° |
| 2026-05-06 11:15 | 50.09013 | 8.71938 | 3033 ft | 189 kts | 248° |
| 2026-05-06 11:15 | 50.08560 | 8.70037 | 2771 ft | 183 kts | 248° |
| 2026-05-06 11:15 | 50.08135 | 8.68257 | 2582 ft | 172 kts | 248° |
| 2026-05-06 11:15 | 50.07727 | 8.66542 | 2333 ft | 166 kts | 248° |
| 2026-05-06 11:16 | 50.07348 | 8.64955 | 2126 ft | 147 kts | 248° |
| 2026-05-06 11:16 | 50.07015 | 8.63558 | 1878 ft | 128 kts | 246° |
| 2026-05-06 11:16 | 50.06707 | 8.62273 | 1656 ft | 129 kts | 247° |
| 2026-05-06 11:16 | 50.06393 | 8.60955 | 1475 ft | 131 kts | 247° |
| 2026-05-06 11:17 | 50.06080 | 8.59647 | 1294 ft | 128 kts | 245° |
| 2026-05-06 11:17 | 50.05778 | 8.58378 | 1113 ft | 125 kts | 246° |
| 2026-05-06 11:17 | 50.05472 | 8.57097 | 956 ft | 126 kts | 247° |
| 2026-05-06 11:17 | 50.05166 | 8.55816 | 776 ft | 126 kts | 248° |
| 2026-05-06 11:18 | 50.04866 | 8.54556 | 603 ft | 124 kts | 248° |
| 2026-05-06 11:18 | 50.04571 | 8.53309 | 409 ft | 121 kts | 248° |
| 2026-05-06 11:18 | 50.04296 | 8.52175 | 353 ft | 91 kts | 252° |
| 2026-05-06 11:18 | 50.04175 | 8.51688 | 340 ft | 16 kts | 237° |
| 2026-05-06 11:19 | 50.04104 | 8.51542 | 339 ft | 18 kts | 226° |
| 2026-05-06 11:19 | 50.04007 | 8.51410 | 334 ft | 19 kts | 217° |
| 2026-05-06 11:19 | 50.03913 | 8.51403 | 340 ft | 13 kts | 109° |
| 2026-05-06 11:19 | 50.03932 | 8.51553 | 351 ft | 16 kts | 69° |
| 2026-05-06 11:20 | 50.03973 | 8.51723 | 347 ft | 18 kts | 71° |
| 2026-05-06 11:20 | 50.04017 | 8.51906 | 350 ft | 20 kts | 69° |
| 2026-05-06 11:20 | 50.04066 | 8.52116 | 346 ft | 22 kts | 70° |
| 2026-05-06 11:20 | 50.04123 | 8.52353 | 355 ft | 24 kts | 69° |
| 2026-05-06 11:21 | 50.04186 | 8.52612 | 358 ft | 27 kts | 70° |
| 2026-05-06 11:21 | 50.04253 | 8.52894 | 363 ft | 29 kts | 70° |
| 2026-05-06 11:21 | 50.04325 | 8.53198 | 370 ft | 31 kts | 70° |
| 2026-05-06 11:21 | 50.04398 | 8.53530 | 380 ft | 30 kts | 82° |
| 2026-05-06 11:22 | 50.04405 | 8.53669 | 381 ft | 11 kts | 85° |
| 2026-05-06 11:22 | 50.04413 | 8.53806 | 381 ft | 14 kts | 82° |
| 2026-05-06 11:22 | 50.04426 | 8.53964 | 381 ft | 16 kts | 84° |
| 2026-05-06 11:22 | 50.04437 | 8.54149 | 381 ft | 18 kts | 84° |
| 2026-05-06 11:23 | 50.04451 | 8.54353 | 379 ft | 20 kts | 84° |
| 2026-05-06 11:23 | 50.04437 | 8.54557 | 371 ft | 21 kts | 110° |
| 2026-05-06 11:23 | 50.04348 | 8.54742 | 364 ft | 22 kts | 154° |
| 2026-05-06 11:23 | 50.04212 | 8.54827 | 359 ft | 17 kts | 159° |
| 2026-05-06 11:24 | 50.04137 | 8.54871 | 356 ft | 11 kts | 159° |
| 2026-05-06 11:24 | 50.04057 | 8.54916 | 360 ft | 14 kts | 159° |
| 2026-05-06 11:24 | 50.04028 | 8.55051 | 362 ft | 17 kts | 75° |
| 2026-05-06 11:24 | 50.04072 | 8.55231 | 361 ft | 19 kts | 68° |
| 2026-05-06 11:25 | 50.04112 | 8.55405 | 362 ft | 12 kts | 70° |
| 2026-05-06 11:25 | 50.04143 | 8.55539 | 363 ft | 14 kts | 70° |
| 2026-05-06 11:25 | 50.04178 | 8.55687 | 360 ft | 14 kts | 69° |
| 2026-05-06 11:25 | 50.04214 | 8.55833 | 364 ft | 16 kts | 69° |
| 2026-05-06 11:26 | 50.04225 | 8.55876 | 360 ft | 0 kts | 69° |
| 2026-05-06 11:26 | 50.04226 | 8.55883 | 365 ft | 3 kts | 69° |
| 2026-05-06 11:26 | 50.04242 | 8.55948 | 363 ft | 9 kts | 70° |
| 2026-05-06 11:26 | 50.04267 | 8.56056 | 361 ft | 12 kts | 70° |
| 2026-05-06 11:27 | 50.04299 | 8.56193 | 366 ft | 15 kts | 70° |
| 2026-05-06 11:27 | 50.04339 | 8.56353 | 361 ft | 17 kts | 70° |
| 2026-05-06 11:27 | 50.04377 | 8.56514 | 364 ft | 7 kts | 70° |
| 2026-05-06 11:27 | 50.04399 | 8.56606 | 365 ft | 10 kts | 70° |
| 2026-05-06 11:28 | 50.04427 | 8.56725 | 363 ft | 13 kts | 69° |
| 2026-05-06 11:28 | 50.04477 | 8.56857 | 370 ft | 16 kts | 28° |
| 2026-05-06 11:28 | 50.04522 | 8.56878 | 364 ft | 3 kts | 12° |
| 2026-05-06 11:28 | 50.04548 | 8.56889 | 364 ft | 5 kts | 15° |
| 2026-05-06 11:29 | 50.04583 | 8.56903 | 364 ft | 5 kts | 14° |
| 2026-05-06 11:29 | 50.04621 | 8.56908 | 361 ft | 7 kts | 340° |
| 2026-05-06 11:29 | 50.04648 | 8.56843 | 365 ft | 7 kts | 295° |
| 2026-05-06 11:29 | 50.04649 | 8.56839 | 364 ft | 0 kts | 292° |
| 2026-05-06 11:30 | 50.04651 | 8.56832 | 363 ft | 2 kts | 290° |
| 2026-05-06 11:30 | 50.04655 | 8.56811 | 364 ft | 0 kts | 291° |